Terminal Aerodrome Forecast
Issued by NWS

Home | Current Version | Previous Version | Text Only | Print | Product List | Glossary Off
Versions: 1 2 3 4 5 6 7 8 9 10 11 12 13 14 15 16

000
FTUS43 KUNR 251120
TAFGCC
TAF
KGCC 251120Z 2512/2612 18017G27KT P6SM BKN150
     FM251500 23009KT P6SM BKN140
     FM251800 34008KT P6SM BKN120
     FM260300 34010KT 6SM -RA BKN008 OVC010=

USA.gov is the U.S. government's official web portal to all federal, state and local government web resources and services.